Constitution — C6BV8 — position and weather

sailwx.info

Track history (hours):
 
Tides and Currents Weather Stations Pressure Air Temp Water Temp Dewpoint Dewpoint Depression Visibility Wind Speed Wind Dir Waves Ship Positions

Constitution

Last reported at 2017-Aug-21 15:23 UTC. Time now 2017-Sep-24 14:21 UTC.
Position N 29°21' W 094°46'.
Warning: this ship's position is 33 days out of date.

Length 225 m; draft 11.8 m.

Type: Tanker. MMSI: 311000379.

Date/timePositionNaut miles runAvg speedWind from/ knotsBaromVisibWave heightAir tempDewpointWater temp
2017-Aug-21 15:23N 29°21' W 094°46'511.8
2017-Aug-21 15:00N 29°24' W 094°49'510.7
2017-Aug-21 14:30N 29°29' W 094°52'510.5
2017-Aug-21 14:00N 29°33' W 094°55'510.5
2017-Aug-21 13:30N 29°38' W 094°58'5 9.2
2017-Aug-21 13:00N 29°42' W 095°00'3 6.8
2017-Aug-21 12:30N 29°44' W 095°03'2 4.8
2017-Aug-21 12:00N 29°45' W 095°06'1 0.0
2017-Aug-19 13:07N 29°44' W 095°07'0 0.5
2017-Aug-19 13:01N 29°44' W 095°07'2 3.9
2017-Aug-19 12:31N 29°45' W 095°06'3 6.5
2017-Aug-19 12:00N 29°44' W 095°02'4 7.9
2017-Aug-19 11:30N 29°41' W 094°59'510.7
2017-Aug-19 11:00N 29°36' W 094°57'611.8
2017-Aug-19 10:30N 29°31' W 094°53'612.8
2017-Aug-19 10:01N 29°25' W 094°50'612.8
2017-Aug-19 09:30N 29°21' W 094°45'11 2.5
2017-Aug-19 05:08N 29°19' W 094°33'  
2017-Aug-14 13:06N 09°39' W 079°45'314.7
2017-Aug-14 12:54N 09°36' W 079°47'614.3
2017-Aug-14 12:30N 09°31' W 079°50'714.0
2017-Aug-14 12:01N 09°26' W 079°55'4 7.2
2017-Aug-14 11:29N 09°23' W 079°56'0 0.2
2017-Aug-14 10:59N 09°23' W 079°56'0 0.2
2017-Aug-14 10:29N 09°23' W 079°56'0 0.1
2017-Aug-14 09:59N 09°23' W 079°56'0 0.0
2017-Aug-14 09:29N 09°23' W 079°56'0 0.2
2017-Aug-14 08:59N 09°23' W 079°56'0 0.0
2017-Aug-14 08:29N 09°23' W 079°56'0 0.0
2017-Aug-14 07:59N 09°23' W 079°56'0 0.0
2017-Aug-14 07:29N 09°23' W 079°56'0 0.1
2017-Aug-14 06:59N 09°23' W 079°56'0 0.1
2017-Aug-14 06:29N 09°23' W 079°56'0 0.0
2017-Aug-14 05:59N 09°23' W 079°56'0 0.0
2017-Aug-14 05:29N 09°23' W 079°56'0 0.1
2017-Aug-14 04:59N 09°23' W 079°56'0 0.1
2017-Aug-14 04:29N 09°23' W 079°56'0 0.1
2017-Aug-14 03:59N 09°23' W 079°56'0 0.1
2017-Aug-14 03:29N 09°23' W 079°56'0 0.1
2017-Aug-14 02:59N 09°23' W 079°56'0 0.0
2017-Aug-14 02:29N 09°23' W 079°56'0 0.1
2017-Aug-14 01:59N 09°23' W 079°56'0 0.1
2017-Aug-14 01:29N 09°23' W 079°56'0 0.5
2017-Aug-14 01:00N 09°22' W 079°55'2 4.9
2017-Aug-14 00:30N 09°20' W 079°55'3 6.0
2017-Aug-14 00:00N 09°17' W 079°55'1 1.1
2017-Aug-13 23:30N 09°16' W 079°55'0 0.4
2017-Aug-13 23:00N 09°16' W 079°55'0 0.1
2017-Aug-13 22:30N 09°16' W 079°55'0 0.5
2017-Aug-13 22:00N 09°16' W 079°55'0 0.7
2017-Aug-13 21:30N 09°16' W 079°55'0 0.9
2017-Aug-13 21:00N 09°15' W 079°55'0 0.1
2017-Aug-13 20:30N 09°15' W 079°55'0 0.1
2017-Aug-13 20:00N 09°15' W 079°55'0 0.5
2017-Aug-13 19:30N 09°15' W 079°55'2 4.4
2017-Aug-13 18:59N 09°13' W 079°56'0 0.3
2017-Aug-13 18:28N 09°13' W 079°56'0 0.1
2017-Aug-13 17:55N 09°13' W 079°56'0 0.0
2017-Aug-13 17:25N 09°13' W 079°56'0 0.1
2017-Aug-13 16:58N 09°13' W 079°56'0 0.1
2017-Aug-13 16:28N 09°13' W 079°56'0 0.2
2017-Aug-13 15:58N 09°13' W 079°56'0 0.1
2017-Aug-13 15:29N 09°13' W 079°56'1 1.5
2017-Aug-13 15:00N 09°13' W 079°55'3 6.7
2017-Aug-13 14:30N 09°11' W 079°52'4 8.5
2017-Aug-13 13:59N 09°09' W 079°49'14 7.5
2017-Aug-13 12:03N 09°00' W 079°37'2 4.7
2017-Aug-13 11:43N 08°59' W 079°36'0 0.0
2017-Aug-13 11:20N 08°59' W 079°36'0 0.0
2017-Aug-13 10:58N 08°59' W 079°36'0 0.0
2017-Aug-13 09:58N 08°59' W 079°36'1 0.3
2017-Aug-13 06:56N 08°58' W 079°35'  
Track history (hours):
 
Tides and Currents Weather Stations Pressure Air Temp Water Temp Dewpoint Dewpoint Depression Visibility Wind Speed Wind Dir Waves Ship Positions

Constitution

Last reported at 2017-Aug-21 15:23 UTC. Time now 2017-Sep-24 14:21 UTC.
Position N 29°21' W 094°46'.
Warning: this ship's position is 33 days out of date.

Length 225 m; draft 11.8 m.

Type: Tanker. MMSI: 311000379.

Date/timePositionNaut miles runAvg speedWind from/ knotsBaromVisibWave heightAir tempDewpointWater temp
2017-Aug-21 15:23N 29°21' W 094°46'511.8
2017-Aug-21 15:00N 29°24' W 094°49'510.7
2017-Aug-21 14:30N 29°29' W 094°52'510.5
2017-Aug-21 14:00N 29°33' W 094°55'510.5
2017-Aug-21 13:30N 29°38' W 094°58'5 9.2
2017-Aug-21 13:00N 29°42' W 095°00'3 6.8
2017-Aug-21 12:30N 29°44' W 095°03'2 4.8
2017-Aug-21 12:00N 29°45' W 095°06'1 0.0
2017-Aug-19 13:07N 29°44' W 095°07'0 0.5
2017-Aug-19 13:01N 29°44' W 095°07'2 3.9
2017-Aug-19 12:31N 29°45' W 095°06'3 6.5
2017-Aug-19 12:00N 29°44' W 095°02'4 7.9
2017-Aug-19 11:30N 29°41' W 094°59'510.7
2017-Aug-19 11:00N 29°36' W 094°57'611.8
2017-Aug-19 10:30N 29°31' W 094°53'612.8
2017-Aug-19 10:01N 29°25' W 094°50'612.8
2017-Aug-19 09:30N 29°21' W 094°45'11 2.5
2017-Aug-19 05:08N 29°19' W 094°33'  
2017-Aug-14 13:06N 09°39' W 079°45'314.7
2017-Aug-14 12:54N 09°36' W 079°47'614.3
2017-Aug-14 12:30N 09°31' W 079°50'714.0
2017-Aug-14 12:01N 09°26' W 079°55'4 7.2
2017-Aug-14 11:29N 09°23' W 079°56'0 0.2
2017-Aug-14 10:59N 09°23' W 079°56'0 0.2
2017-Aug-14 10:29N 09°23' W 079°56'0 0.1
2017-Aug-14 09:59N 09°23' W 079°56'0 0.0
2017-Aug-14 09:29N 09°23' W 079°56'0 0.2
2017-Aug-14 08:59N 09°23' W 079°56'0 0.0
2017-Aug-14 08:29N 09°23' W 079°56'0 0.0
2017-Aug-14 07:59N 09°23' W 079°56'0 0.0
2017-Aug-14 07:29N 09°23' W 079°56'0 0.1
2017-Aug-14 06:59N 09°23' W 079°56'0 0.1
2017-Aug-14 06:29N 09°23' W 079°56'0 0.0
2017-Aug-14 05:59N 09°23' W 079°56'0 0.0
2017-Aug-14 05:29N 09°23' W 079°56'0 0.1
2017-Aug-14 04:59N 09°23' W 079°56'0 0.1
2017-Aug-14 04:29N 09°23' W 079°56'0 0.1
2017-Aug-14 03:59N 09°23' W 079°56'0 0.1
2017-Aug-14 03:29N 09°23' W 079°56'0 0.1
2017-Aug-14 02:59N 09°23' W 079°56'0 0.0
2017-Aug-14 02:29N 09°23' W 079°56'0 0.1
2017-Aug-14 01:59N 09°23' W 079°56'0 0.1
2017-Aug-14 01:29N 09°23' W 079°56'0 0.5
2017-Aug-14 01:00N 09°22' W 079°55'2 4.9
2017-Aug-14 00:30N 09°20' W 079°55'3 6.0
2017-Aug-14 00:00N 09°17' W 079°55'1 1.1
2017-Aug-13 23:30N 09°16' W 079°55'0 0.4
2017-Aug-13 23:00N 09°16' W 079°55'0 0.1
2017-Aug-13 22:30N 09°16' W 079°55'0 0.5
2017-Aug-13 22:00N 09°16' W 079°55'0 0.7
2017-Aug-13 21:30N 09°16' W 079°55'0 0.9
2017-Aug-13 21:00N 09°15' W 079°55'0 0.1
2017-Aug-13 20:30N 09°15' W 079°55'0 0.1
2017-Aug-13 20:00N 09°15' W 079°55'0 0.5
2017-Aug-13 19:30N 09°15' W 079°55'2 4.4
2017-Aug-13 18:59N 09°13' W 079°56'0 0.3
2017-Aug-13 18:28N 09°13' W 079°56'0 0.1
2017-Aug-13 17:55N 09°13' W 079°56'0 0.0
2017-Aug-13 17:25N 09°13' W 079°56'0 0.1
2017-Aug-13 16:58N 09°13' W 079°56'0 0.1
2017-Aug-13 16:28N 09°13' W 079°56'0 0.2
2017-Aug-13 15:58N 09°13' W 079°56'0 0.1
2017-Aug-13 15:29N 09°13' W 079°56'1 1.5
2017-Aug-13 15:00N 09°13' W 079°55'3 6.7
2017-Aug-13 14:30N 09°11' W 079°52'4 8.5
2017-Aug-13 13:59N 09°09' W 079°49'14 7.5
2017-Aug-13 12:03N 09°00' W 079°37'2 4.7
2017-Aug-13 11:43N 08°59' W 079°36'0 0.0
2017-Aug-13 11:20N 08°59' W 079°36'0 0.0
2017-Aug-13 10:58N 08°59' W 079°36'0 0.0
2017-Aug-13 09:58N 08°59' W 079°36'1 0.3
2017-Aug-13 06:56N 08°58' W 079°35'  

Dump ship's entire track history